createdAt,value
2023-05-14T00:01:08.120Z,102124.44
2023-05-14T00:03:34.646Z,102125.75
2023-05-14T00:06:01.223Z,102121.56
2023-05-14T00:08:27.740Z,102120.66
2023-05-14T00:10:54.128Z,102117.31
2023-05-14T00:13:20.573Z,102113.16
2023-05-14T00:15:46.957Z,102108.19
2023-05-14T00:18:13.438Z,102107.03
2023-05-14T00:20:40.907Z,102112.41
2023-05-14T00:23:07.309Z,102105.31
2023-05-14T00:25:33.683Z,102105.09
2023-05-14T00:28:00.036Z,102104.47
2023-05-14T00:30:26.426Z,102094.75
2023-05-14T00:32:52.850Z,102096.69
2023-05-14T00:35:20.443Z,102089.59
2023-05-14T00:37:47.341Z,102085.50
2023-05-14T00:40:14.124Z,102086.75
2023-05-14T00:42:40.947Z,102079.25
2023-05-14T00:45:07.901Z,102087.22
2023-05-14T00:47:38.857Z,102083.91
2023-05-14T00:50:06.393Z,102083.28
2023-05-14T00:52:33.062Z,102077.22
2023-05-14T00:55:00.696Z,102064.28
2023-05-14T00:57:27.147Z,102074.69
2023-05-14T00:59:53.909Z,102061.75
2023-05-14T01:02:20.486Z,102065.06
2023-05-14T01:04:46.961Z,102067.63
2023-05-14T01:07:46.630Z,102083.97
2023-05-14T01:10:45.679Z,102074.13
2023-05-14T01:13:44.061Z,102075.41
2023-05-14T01:16:14.327Z,102069.13
2023-05-14T01:18:43.967Z,102064.16
2023-05-14T01:21:35.461Z,102066.25
2023-05-14T01:24:02.120Z,102061.50
2023-05-14T01:26:30.441Z,102061.72
2023-05-14T01:29:03.939Z,102067.56
2023-05-14T01:31:32.270Z,102070.00
2023-05-14T01:34:00.617Z,102062.59
2023-05-14T01:36:29.281Z,102069.28
2023-05-14T01:38:57.628Z,102075.53
2023-05-14T01:41:25.906Z,102066.81
2023-05-14T01:43:52.457Z,102070.16
2023-05-14T01:46:19.689Z,102066.44
2023-05-14T01:48:46.276Z,102056.44
2023-05-14T01:51:14.635Z,102062.69
2023-05-14T01:53:41.075Z,102063.13
2023-05-14T01:56:07.506Z,102065.22
2023-05-14T01:58:33.891Z,102054.81
2023-05-14T02:01:00.336Z,102058.53
2023-05-14T02:03:26.776Z,102048.78
2023-05-14T02:05:53.140Z,102043.75
2023-05-14T02:08:19.502Z,102045.22
2023-05-14T02:10:45.901Z,102036.69
2023-05-14T02:13:12.253Z,102037.53
2023-05-14T02:15:38.690Z,102032.31
2023-05-14T02:18:05.450Z,102030.69
2023-05-14T02:20:31.808Z,102032.41
2023-05-14T02:22:58.211Z,102038.03
2023-05-14T02:25:24.692Z,102040.56
2023-05-14T02:27:51.081Z,102042.84
2023-05-14T02:30:17.536Z,102042.00
2023-05-14T02:32:44.029Z,102041.16
2023-05-14T02:35:10.649Z,102027.41
2023-05-14T02:37:37.092Z,102029.50
2023-05-14T02:40:04.542Z,102031.22
2023-05-14T02:42:31.784Z,102025.78
2023-05-14T02:44:58.189Z,102030.81
2023-05-14T02:47:24.568Z,102025.00
2023-05-14T02:49:51.153Z,102025.41
2023-05-14T02:52:17.517Z,102023.13
2023-05-14T02:54:43.861Z,102022.72
2023-05-14T02:57:10.348Z,102023.31
2023-05-14T02:59:36.737Z,102027.13
2023-05-14T03:02:03.793Z,102022.50
2023-05-14T03:04:30.781Z,102024.22
2023-05-14T03:06:57.186Z,102017.94
2023-05-14T03:09:23.605Z,102024.00
2023-05-14T03:11:50.769Z,102020.94
2023-05-14T03:14:17.256Z,102014.28
2023-05-14T03:16:43.628Z,102017.63
2023-05-14T03:19:10.292Z,102010.13
2023-05-14T03:21:36.949Z,102019.50
2023-05-14T03:24:03.740Z,102017.66
2023-05-14T03:26:30.087Z,102025.34
2023-05-14T03:28:56.963Z,102023.72
2023-05-14T03:31:23.675Z,102020.59
2023-05-14T03:33:50.389Z,102017.47
2023-05-14T03:36:16.837Z,102021.22
2023-05-14T03:38:43.219Z,102013.91
2023-05-14T03:41:09.585Z,102022.03
2023-05-14T03:43:36.076Z,102012.06
2023-05-14T03:46:02.396Z,102015.78
2023-05-14T03:48:28.856Z,102027.63
2023-05-14T03:50:55.442Z,102013.06
2023-05-14T03:53:21.819Z,102014.50
2023-05-14T03:55:48.314Z,102008.25
2023-05-14T03:58:14.975Z,102012.63
2023-05-14T04:00:42.556Z,102006.63
2023-05-14T04:03:09.168Z,102008.84
2023-05-14T04:05:35.898Z,102000.13
2023-05-14T04:08:02.347Z,101998.03
2023-05-14T04:10:28.864Z,101998.44
2023-05-14T04:12:55.639Z,102001.75
2023-05-14T04:15:22.188Z,101994.88
2023-05-14T04:17:48.518Z,102002.59
2023-05-14T04:20:14.860Z,101998.22
2023-05-14T04:22:41.373Z,101998.44
2023-05-14T04:25:08.132Z,101995.53
2023-05-14T04:27:34.525Z,102004.72
2023-05-14T04:30:01.407Z,102001.38
2023-05-14T04:32:27.799Z,102001.38
2023-05-14T04:34:54.136Z,101997.16
2023-05-14T04:37:20.508Z,102003.66
2023-05-14T04:39:46.872Z,102001.53
2023-05-14T04:42:13.464Z,102002.31
2023-05-14T04:44:40.165Z,102003.75
2023-05-14T04:47:07.000Z,102002.03
2023-05-14T04:49:33.622Z,101999.91
2023-05-14T04:52:01.516Z,102003.19
2023-05-14T04:54:27.966Z,101993.94
2023-05-14T04:56:56.013Z,101999.31
2023-05-14T04:59:22.636Z,101999.06
2023-05-14T05:01:49.162Z,102007.16
2023-05-14T05:04:15.876Z,101995.84
2023-05-14T05:06:42.526Z,101997.06
2023-05-14T05:09:09.863Z,101996.63
2023-05-14T05:11:36.309Z,101995.28
2023-05-14T05:14:02.657Z,102000.50
2023-05-14T05:16:29.064Z,101999.88
2023-05-14T05:18:55.573Z,102005.25
2023-05-14T05:21:22.114Z,102009.81
2023-05-14T05:23:48.695Z,102004.31
2023-05-14T05:26:15.050Z,102006.38
2023-05-14T05:28:41.380Z,102011.38
2023-05-14T05:31:08.113Z,102018.38
2023-05-14T05:33:35.691Z,102014.38
2023-05-14T05:36:02.068Z,102014.97
2023-05-14T05:38:28.447Z,102017.38
2023-05-14T05:40:55.108Z,102008.03
2023-05-14T05:43:21.514Z,102008.84
2023-05-14T05:45:47.981Z,102007.56
2023-05-14T05:48:14.501Z,102019.06
2023-05-14T05:50:41.003Z,102016.72
2023-05-14T05:53:07.360Z,102021.69
2023-05-14T05:55:33.678Z,102012.72
2023-05-14T05:57:59.999Z,102016.19
2023-05-14T06:00:26.770Z,102017.03
2023-05-14T06:02:53.489Z,102020.59
2023-05-14T06:05:20.061Z,102019.47
2023-05-14T06:07:46.508Z,102026.06
2023-05-14T06:10:12.961Z,102011.84
2023-05-14T06:12:39.489Z,102017.13
2023-05-14T06:15:06.582Z,102027.22
2023-05-14T06:17:33.008Z,102023.59
2023-05-14T06:19:59.486Z,102019.31
2023-05-14T06:22:25.970Z,102016.13
2023-05-14T06:24:52.455Z,102037.06
2023-05-14T06:27:18.871Z,102037.81
2023-05-14T06:29:45.268Z,102037.94
2023-05-14T06:32:15.395Z,102028.72
2023-05-14T06:34:42.730Z,102022.50
2023-05-14T06:37:10.190Z,102024.38
2023-05-14T06:39:37.616Z,102024.47
2023-05-14T06:42:04.097Z,102016.94
2023-05-14T06:44:33.691Z,102019.84
2023-05-14T06:47:00.152Z,102028.38
2023-05-14T06:49:26.608Z,102022.63
2023-05-14T06:51:54.137Z,102021.38
2023-05-14T06:54:20.638Z,102023.34
2023-05-14T06:56:47.088Z,102018.81
2023-05-14T06:59:13.526Z,102015.41
2023-05-14T07:01:40.889Z,102011.16
2023-05-14T07:04:07.508Z,102011.25
2023-05-14T07:06:33.970Z,102019.50
2023-05-14T07:09:01.544Z,102016.84
2023-05-14T07:11:28.083Z,102014.22
2023-05-14T07:13:54.473Z,102016.25
2023-05-14T07:16:21.067Z,102015.03
2023-05-14T07:18:47.584Z,102008.06
2023-05-14T07:21:13.927Z,102022.31
2023-05-14T07:23:40.305Z,102016.56
2023-05-14T07:26:07.697Z,102016.47
2023-05-14T07:28:34.757Z,102018.06
2023-05-14T07:31:01.217Z,102016.78
2023-05-14T07:33:27.636Z,102017.66
2023-05-14T07:35:54.233Z,102011.97
2023-05-14T07:38:21.101Z,102004.50
2023-05-14T07:40:47.459Z,102005.09
2023-05-14T07:43:14.251Z,102002.44
2023-05-14T07:45:41.084Z,102002.19
2023-05-14T07:48:07.658Z,102000.06
2023-05-14T07:50:34.249Z,101999.03
2023-05-14T07:53:00.619Z,101998.22
2023-05-14T07:55:28.796Z,101997.50
2023-05-14T07:57:55.481Z,101998.25
2023-05-14T08:00:22.051Z,101992.75
2023-05-14T08:02:49.247Z,101998.31
2023-05-14T08:05:15.946Z,101996.91
2023-05-14T08:07:42.323Z,101996.84
2023-05-14T08:10:09.404Z,101998.47
2023-05-14T08:12:35.758Z,101997.06
2023-05-14T08:15:02.644Z,101995.06
2023-05-14T08:17:29.052Z,101986.44
2023-05-14T08:19:55.403Z,101991.56
2023-05-14T08:22:21.811Z,102002.66
2023-05-14T08:24:48.867Z,101994.19
2023-05-14T08:27:16.485Z,101995.69
2023-05-14T08:29:42.803Z,101991.34
2023-05-14T08:32:21.987Z,101992.59
2023-05-14T08:34:49.455Z,101991.53
2023-05-14T08:37:15.977Z,101987.16
2023-05-14T08:39:42.292Z,101989.03
2023-05-14T08:42:12.013Z,101994.75
2023-05-14T08:44:49.397Z,101988.88
2023-05-14T08:47:18.500Z,101978.44
2023-05-14T08:49:47.253Z,101973.34
2023-05-14T08:52:16.007Z,101978.97
2023-05-14T08:54:42.778Z,101972.28
2023-05-14T08:57:09.744Z,101979.41
2023-05-14T08:59:36.293Z,101973.34
2023-05-14T09:02:05.160Z,101972.53
2023-05-14T09:04:32.353Z,101967.91
2023-05-14T09:07:01.189Z,101967.44
2023-05-14T09:09:27.945Z,101969.22
2023-05-14T09:11:54.413Z,101968.34
2023-05-14T09:14:22.097Z,101960.94
2023-05-14T09:16:50.463Z,101964.41
2023-05-14T09:19:19.405Z,101961.00
2023-05-14T09:21:49.926Z,101957.88
2023-05-14T09:24:21.365Z,101952.69
2023-05-14T09:26:51.698Z,101952.06
2023-05-14T09:29:18.553Z,101950.59
2023-05-14T09:31:45.360Z,101950.22
2023-05-14T09:34:11.811Z,101947.22
2023-05-14T09:36:38.297Z,101933.28
2023-05-14T09:39:04.782Z,101937.66
2023-05-14T09:41:31.156Z,101944.63
2023-05-14T09:43:57.869Z,101937.94
2023-05-14T09:46:24.103Z,101936.94
2023-05-14T09:48:50.556Z,101931.75
2023-05-14T09:51:20.978Z,101929.94
2023-05-14T09:53:47.406Z,101938.84
2023-05-14T09:56:14.725Z,101933.31
2023-05-14T09:58:41.169Z,101929.38
2023-05-14T10:01:07.967Z,101935.56
2023-05-14T10:03:34.342Z,101930.66
2023-05-14T10:06:06.542Z,101929.50
2023-05-14T10:08:41.117Z,101929.09
2023-05-14T10:11:13.820Z,101926.47
2023-05-14T10:13:43.608Z,101928.09
2023-05-14T10:16:21.891Z,101931.63
2023-05-14T10:18:53.240Z,101924.09
2023-05-14T10:21:22.505Z,101924.63
2023-05-14T10:23:50.410Z,101925.97
2023-05-14T10:26:17.037Z,101915.63
2023-05-14T10:28:44.140Z,101912.16
2023-05-14T10:31:10.689Z,101907.22
2023-05-14T10:33:50.846Z,101905.59
2023-05-14T10:36:17.689Z,101899.84
2023-05-14T10:38:44.128Z,101902.31
2023-05-14T10:41:12.840Z,101905.78
2023-05-14T10:43:43.335Z,101896.41
2023-05-14T10:46:12.722Z,101897.03
2023-05-14T10:48:42.285Z,101893.81
2023-05-14T10:51:11.013Z,101887.31
2023-05-14T10:53:39.822Z,101885.41
2023-05-14T10:56:12.810Z,101886.63
2023-05-14T10:58:42.100Z,101888.16
2023-05-14T11:01:10.382Z,101879.59
2023-05-14T11:03:46.775Z,101884.50
2023-05-14T11:06:15.194Z,101869.56
2023-05-14T11:08:41.877Z,101876.91
2023-05-14T11:11:09.031Z,101871.78
2023-05-14T11:13:35.883Z,101881.03
2023-05-14T11:16:15.050Z,101874.28
2023-05-14T11:18:47.916Z,101869.16
2023-05-14T11:21:14.302Z,101866.28
2023-05-14T11:23:40.833Z,101869.88
2023-05-14T11:26:07.339Z,101860.72
2023-05-14T11:28:34.259Z,101862.16
2023-05-14T11:31:00.728Z,101867.63
2023-05-14T11:33:27.762Z,101853.97
2023-05-14T11:35:54.246Z,101853.44
2023-05-14T11:38:21.247Z,101846.84
2023-05-14T11:40:58.747Z,101851.97
2023-05-14T11:43:29.013Z,101843.16
2023-05-14T11:45:56.077Z,101844.53
2023-05-14T11:48:24.024Z,101840.34
2023-05-14T11:50:53.868Z,101842.16
2023-05-14T11:53:25.885Z,101844.34
2023-05-14T11:55:54.503Z,101846.00
2023-05-14T11:58:21.994Z,101843.31
2023-05-14T12:00:52.363Z,101837.91
2023-05-14T12:03:26.627Z,101841.03
2023-05-14T12:06:01.295Z,101833.06
2023-05-14T12:08:29.081Z,101829.44
2023-05-14T12:10:56.216Z,101824.84
2023-05-14T12:13:27.185Z,101827.47
2023-05-14T12:15:55.356Z,101824.50
2023-05-14T12:18:24.927Z,101822.19
2023-05-14T12:20:52.155Z,101814.72
2023-05-14T12:23:31.962Z,101826.16
2023-05-14T12:26:06.689Z,101822.72
2023-05-14T12:28:34.908Z,101817.50
2023-05-14T12:31:03.720Z,101812.81
2023-05-14T12:33:30.349Z,101812.69
2023-05-14T12:36:17.595Z,101806.91
2023-05-14T12:38:47.691Z,101795.53
2023-05-14T12:41:13.928Z,101805.41
2023-05-14T12:43:43.237Z,101796.09
2023-05-14T12:46:10.672Z,101794.75
2023-05-14T12:48:37.061Z,101790.31
2023-05-14T12:51:03.815Z,101798.56
2023-05-14T12:53:30.289Z,101799.34
2023-05-14T12:55:56.712Z,101788.84
2023-05-14T12:58:23.059Z,101783.22
2023-05-14T13:00:49.414Z,101777.75
2023-05-14T13:03:15.935Z,101784.59
2023-05-14T13:05:42.222Z,101772.81
2023-05-14T13:08:09.661Z,101781.97
2023-05-14T13:10:36.062Z,101781.31
2023-05-14T13:13:02.501Z,101773.72
2023-05-14T13:15:29.022Z,101770.06
2023-05-14T13:17:55.425Z,101766.03
2023-05-14T13:20:23.520Z,101771.59
2023-05-14T13:22:49.842Z,101767.97
2023-05-14T13:25:16.385Z,101770.13
2023-05-14T13:27:42.625Z,101768.19
2023-05-14T13:30:09.303Z,101770.78
2023-05-14T13:32:35.744Z,101759.75
2023-05-14T13:35:02.203Z,101770.06
2023-05-14T13:37:28.607Z,101764.84
2023-05-14T13:39:55.227Z,101759.44
2023-05-14T13:42:21.659Z,101765.38
2023-05-14T13:44:48.135Z,101758.13
2023-05-14T13:47:14.497Z,101761.25
2023-05-14T13:49:40.850Z,101754.72
2023-05-14T13:52:07.182Z,101750.50
2023-05-14T13:54:33.531Z,101752.28
2023-05-14T13:56:59.894Z,101746.25
2023-05-14T13:59:26.311Z,101745.25
2023-05-14T14:01:52.801Z,101744.31
2023-05-14T14:04:19.922Z,101741.19
2023-05-14T14:06:46.288Z,101737.59
2023-05-14T14:09:13.680Z,101733.03
2023-05-14T14:11:40.984Z,101739.03
2023-05-14T14:14:07.382Z,101724.50
2023-05-14T14:16:33.794Z,101730.56
2023-05-14T14:19:00.254Z,101731.88
2023-05-14T14:21:26.628Z,101735.63
2023-05-14T14:23:53.604Z,101727.78
2023-05-14T14:26:20.128Z,101731.72
2023-05-14T14:28:46.597Z,101724.38
2023-05-14T14:31:13.212Z,101720.91
2023-05-14T14:33:39.729Z,101726.97
2023-05-14T14:36:06.770Z,101720.28
2023-05-14T14:38:33.168Z,101715.72
2023-05-14T14:40:59.922Z,101716.53
2023-05-14T14:43:26.304Z,101711.06
2023-05-14T14:45:52.703Z,101713.09
2023-05-14T14:48:23.281Z,101708.38
2023-05-14T14:50:49.950Z,101714.72
2023-05-14T14:53:16.187Z,101713.81
2023-05-14T14:55:42.588Z,101710.16
2023-05-14T14:58:09.123Z,101717.09
2023-05-14T15:00:35.438Z,101707.09
2023-05-14T15:03:01.890Z,101711.25
2023-05-14T15:05:28.244Z,101706.84
2023-05-14T15:07:54.569Z,101713.75
2023-05-14T15:10:20.956Z,101712.44
2023-05-14T15:12:47.441Z,101708.00
2023-05-14T15:15:13.885Z,101708.03
2023-05-14T15:17:40.838Z,101706.41
2023-05-14T15:20:08.828Z,101700.41
2023-05-14T15:22:35.208Z,101699.41
2023-05-14T15:25:01.578Z,101700.38
2023-05-14T15:27:27.942Z,101702.09
2023-05-14T15:29:54.350Z,101697.09
2023-05-14T15:32:20.828Z,101700.56
2023-05-14T15:34:47.190Z,101694.06
2023-05-14T15:37:13.502Z,101694.38
2023-05-14T15:39:39.867Z,101692.38
2023-05-14T15:42:06.698Z,101681.19
2023-05-14T15:44:33.081Z,101686.28
2023-05-14T15:46:59.385Z,101695.50
2023-05-14T15:49:25.777Z,101685.91
2023-05-14T15:51:52.161Z,101683.75
2023-05-14T15:54:18.579Z,101681.16
2023-05-14T15:56:45.165Z,101675.34
2023-05-14T15:59:11.594Z,101677.13
2023-05-14T16:01:37.931Z,101680.13
2023-05-14T16:04:04.404Z,101682.28
2023-05-14T16:06:31.071Z,101681.88
2023-05-14T16:08:57.506Z,101681.38
2023-05-14T16:11:23.931Z,101682.91
2023-05-14T16:13:50.245Z,101679.41
2023-05-14T16:16:16.803Z,101682.47
2023-05-14T16:18:43.780Z,101679.53
2023-05-14T16:21:10.205Z,101682.81
2023-05-14T16:23:36.744Z,101692.13
2023-05-14T16:26:03.130Z,101692.72
2023-05-14T16:28:29.527Z,101672.44
2023-05-14T16:30:56.057Z,101685.31
2023-05-14T16:33:22.392Z,101684.31
2023-05-14T16:35:49.807Z,101684.16
2023-05-14T16:38:16.173Z,101686.28
2023-05-14T16:40:42.790Z,101691.00
2023-05-14T16:43:09.234Z,101688.00
2023-05-14T16:45:37.216Z,101689.72
2023-05-14T16:48:04.993Z,101697.13
2023-05-14T16:50:31.813Z,101692.34
2023-05-14T16:52:58.245Z,101701.88
2023-05-14T16:55:25.174Z,101699.78
2023-05-14T16:57:51.485Z,101696.78
2023-05-14T17:00:18.040Z,101695.09
2023-05-14T17:02:44.504Z,101701.53
2023-05-14T17:05:10.944Z,101710.31
2023-05-14T17:07:38.876Z,101702.94
2023-05-14T17:10:06.352Z,101706.72
2023-05-14T17:12:32.716Z,101706.22
2023-05-14T17:14:59.033Z,101698.66
2023-05-14T17:17:25.451Z,101703.16
2023-05-14T17:19:51.821Z,101702.44
2023-05-14T17:22:18.336Z,101706.97
2023-05-14T17:24:44.709Z,101716.91
2023-05-14T17:27:11.099Z,101710.59
2023-05-14T17:29:37.493Z,101711.75
2023-05-14T17:32:04.314Z,101704.63
2023-05-14T17:34:30.790Z,101714.81
2023-05-14T17:36:57.251Z,101717.84
2023-05-14T17:39:23.645Z,101718.72
2023-05-14T17:41:50.026Z,101717.88
2023-05-14T17:44:16.363Z,101715.69
2023-05-14T17:46:44.623Z,101714.88
2023-05-14T17:49:20.445Z,101708.28
2023-05-14T17:51:46.974Z,101720.03
2023-05-14T17:54:13.706Z,101717.31
2023-05-14T17:56:40.830Z,101716.72
2023-05-14T17:59:07.548Z,101722.72
2023-05-14T18:01:33.896Z,101723.81
2023-05-14T18:04:00.334Z,101728.16
2023-05-14T18:06:26.809Z,101728.94
2023-05-14T18:08:53.180Z,101736.88
2023-05-14T18:11:19.559Z,101734.66
2023-05-14T18:13:45.946Z,101731.50
2023-05-14T18:16:12.353Z,101731.78
2023-05-14T18:18:38.938Z,101737.53
2023-05-14T18:21:05.472Z,101738.00
2023-05-14T18:23:32.130Z,101740.56
2023-05-14T18:25:59.593Z,101742.94
2023-05-14T18:28:26.404Z,101746.19
2023-05-14T18:30:52.779Z,101746.69
2023-05-14T18:33:19.154Z,101755.34
2023-05-14T18:35:45.584Z,101745.63
2023-05-14T18:38:13.543Z,101749.88
2023-05-14T18:40:39.883Z,101749.22
2023-05-14T18:43:06.278Z,101750.34
2023-05-14T18:45:33.041Z,101753.09
2023-05-14T18:47:59.589Z,101755.69
2023-05-14T18:50:26.077Z,101759.16
2023-05-14T18:52:52.448Z,101764.19
2023-05-14T18:55:18.797Z,101766.53
2023-05-14T18:57:45.282Z,101764.59
2023-05-14T19:00:12.425Z,101768.41
2023-05-14T19:02:38.877Z,101768.47
2023-05-14T19:05:06.158Z,101771.59
2023-05-14T19:07:32.617Z,101772.59
2023-05-14T19:09:58.945Z,101772.16
2023-05-14T19:12:25.283Z,101769.41
2023-05-14T19:14:51.624Z,101769.47
2023-05-14T19:17:20.473Z,101768.50
2023-05-14T19:19:52.174Z,101776.78
2023-05-14T19:22:19.452Z,101776.22
2023-05-14T19:27:16.479Z,101766.81
2023-05-14T19:29:43.698Z,101770.44
2023-05-14T19:32:10.483Z,101765.22
2023-05-14T19:34:36.945Z,101765.00
2023-05-14T19:37:03.915Z,101764.66
2023-05-14T19:39:30.341Z,101764.09
2023-05-14T19:41:56.756Z,101772.56
2023-05-14T19:44:23.094Z,101775.31
2023-05-14T19:46:49.485Z,101772.00
2023-05-14T19:49:15.946Z,101769.53
2023-05-14T19:51:42.301Z,101771.44
2023-05-14T19:54:09.939Z,101770.75
2023-05-14T19:56:36.537Z,101770.66
2023-05-14T19:59:02.874Z,101759.13
2023-05-14T20:01:29.503Z,101764.19
2023-05-14T20:03:56.014Z,101771.94
2023-05-14T20:06:22.479Z,101773.13
2023-05-14T20:08:48.952Z,101767.06
2023-05-14T20:11:15.683Z,101770.63
2023-05-14T20:13:42.095Z,101771.78
2023-05-14T20:16:08.498Z,101767.13
2023-05-14T20:18:34.896Z,101765.16
2023-05-14T20:21:01.515Z,101763.16
2023-05-14T20:23:28.023Z,101763.41
2023-05-14T20:25:54.461Z,101767.88
2023-05-14T20:28:24.209Z,101763.31
2023-05-14T20:30:50.654Z,101762.81
2023-05-14T20:33:17.237Z,101760.06
2023-05-14T20:35:44.230Z,101758.16
2023-05-14T20:38:12.502Z,101763.97
2023-05-14T20:40:39.060Z,101759.47
2023-05-14T20:43:05.416Z,101761.91
2023-05-14T20:45:31.858Z,101761.06
2023-05-14T20:47:58.248Z,101751.72
2023-05-14T20:50:26.950Z,101755.56
2023-05-14T20:52:53.825Z,101749.66
2023-05-14T20:55:21.576Z,101751.53
2023-05-14T20:57:49.541Z,101747.84
2023-05-14T21:00:16.261Z,101745.88
2023-05-14T21:02:42.949Z,101736.53
2023-05-14T21:05:09.485Z,101738.63
2023-05-14T21:07:36.490Z,101731.75
2023-05-14T21:10:03.630Z,101737.78
2023-05-14T21:12:30.127Z,101736.22
2023-05-14T21:14:56.562Z,101726.13
2023-05-14T21:17:23.051Z,101733.72
2023-05-14T21:19:49.380Z,101737.50
2023-05-14T21:22:15.819Z,101737.03
2023-05-14T21:24:42.242Z,101740.97
2023-05-14T21:27:08.689Z,101741.19
2023-05-14T21:29:35.079Z,101742.72
2023-05-14T21:32:01.526Z,101748.38
2023-05-14T21:34:29.674Z,101748.50
2023-05-14T21:36:56.898Z,101748.50
2023-05-14T21:39:23.276Z,101736.00
2023-05-14T21:41:49.868Z,101738.72
2023-05-14T21:44:16.290Z,101731.22
2023-05-14T21:46:42.736Z,101730.53
2023-05-14T21:49:09.104Z,101722.47
2023-05-14T21:51:35.847Z,101726.59
2023-05-14T21:54:02.214Z,101719.88
2023-05-14T21:56:28.593Z,101722.50
2023-05-14T21:58:55.936Z,101726.06
2023-05-14T22:01:22.692Z,101724.41
2023-05-14T22:03:49.160Z,101725.72
2023-05-14T22:06:15.580Z,101723.25
2023-05-14T22:08:42.050Z,101721.59
2023-05-14T22:11:08.422Z,101723.16
2023-05-14T22:13:37.507Z,101711.66
2023-05-14T22:16:11.988Z,101708.94
2023-05-14T22:18:39.529Z,101701.63
2023-05-14T22:21:06.074Z,101706.22
2023-05-14T22:23:32.417Z,101706.69
2023-05-14T22:25:58.840Z,101714.78
2023-05-14T22:28:25.265Z,101710.41
2023-05-14T22:30:51.710Z,101715.84
2023-05-14T22:33:19.289Z,101708.97
2023-05-14T22:35:45.723Z,101709.72
2023-05-14T22:38:12.635Z,101703.44
2023-05-14T22:40:38.984Z,101702.59
2023-05-14T22:43:05.577Z,101697.41
2023-05-14T22:45:32.006Z,101691.97
2023-05-14T22:47:58.500Z,101690.66
2023-05-14T22:50:24.946Z,101691.97
2023-05-14T22:52:51.326Z,101687.00
2023-05-14T22:55:17.884Z,101684.56
2023-05-14T22:57:44.228Z,101690.69
2023-05-14T23:00:11.433Z,101679.13
2023-05-14T23:02:37.998Z,101674.75
2023-05-14T23:05:05.095Z,101678.97
2023-05-14T23:07:31.473Z,101672.97
2023-05-14T23:09:57.792Z,101675.44
2023-05-14T23:12:24.186Z,101667.88
2023-05-14T23:14:50.578Z,101670.59
2023-05-14T23:17:17.557Z,101670.81
2023-05-14T23:19:44.063Z,101668.09
2023-05-14T23:22:10.408Z,101688.34
2023-05-14T23:24:36.928Z,101678.56
2023-05-14T23:27:03.396Z,101668.47
2023-05-14T23:29:29.791Z,101657.84
2023-05-14T23:31:56.337Z,101655.22
2023-05-14T23:34:23.003Z,101655.81
2023-05-14T23:36:49.815Z,101646.84
2023-05-14T23:39:16.368Z,101648.50
2023-05-14T23:41:42.810Z,101643.88
2023-05-14T23:44:09.189Z,101636.31
2023-05-14T23:46:35.716Z,101632.31
2023-05-14T23:49:02.122Z,101632.53
2023-05-14T23:51:28.568Z,101628.28
2023-05-14T23:53:58.444Z,101628.28
2023-05-14T23:56:27.201Z,101620.94
2023-05-14T23:58:53.917Z,101623.78
